Time;durP1;ratioP1;P1;durP2;ratioP2;P2;SDS_P1;SDS_P2;PMS_P1;PMS_P2;Temp;Humidity;BMP_temperature;BMP_pressure;BME280_temperature;BME280_humidity;BME280_pressure;Samples;Min_cycle;Max_cycle;Signal;HPM_P1;HPM_P2
2022/05/26 00:01:39;;;;;;;15.10;6.80;;;;;;;;;;4932273;28;20032;-62
2022/05/26 00:04:06;;;;;;;13.50;7.18;;;;;;;;;;4932009;29;20032;-62
2022/05/26 00:06:32;;;;;;;14.02;7.68;;;;;;;;;;4931973;29;20024;-61
2022/05/26 00:08:59;;;;;;;15.48;7.63;;;;;;;;;;4944893;29;20031;-62
2022/05/26 00:11:28;;;;;;;15.00;7.00;;;;;;;;;;4950927;29;20479;-62
2022/05/26 00:13:54;;;;;;;20.38;7.65;;;;;;;;;;4951118;28;20095;-61
2022/05/26 00:16:21;;;;;;;14.95;7.38;;;;;;;;;;4951901;29;20426;-62
2022/05/26 00:18:47;;;;;;;13.50;7.22;;;;;;;;;;4951452;28;20114;-62
2022/05/26 00:21:13;;;;;;;15.75;7.40;;;;;;;;;;4597127;28;10000449;-62
2022/05/26 00:23:39;;;;;;;16.10;7.25;;;;;;;;;;4958637;23;20039;-64
2022/05/26 00:26:05;;;;;;;15.05;7.15;;;;;;;;;;4950558;28;20031;-63
2022/05/26 00:28:31;;;;;;;16.92;7.30;;;;;;;;;;4951189;29;20066;-64
2022/05/26 00:30:58;;;;;;;16.33;7.30;;;;;;;;;;4951260;28;20535;-62
2022/05/26 00:33:24;;;;;;;16.90;8.48;;;;;;;;;;4951922;29;20134;-64
2022/05/26 00:35:50;;;;;;;14.57;7.22;;;;;;;;;;5017659;28;20035;-65
2022/05/26 00:38:16;;;;;;;15.70;7.65;;;;;;;;;;4951409;29;20031;-65
2022/05/26 00:40:43;;;;;;;17.23;7.50;;;;;;;;;;4951774;28;20036;-65
2022/05/26 00:43:10;;;;;;;16.40;7.68;;;;;;;;;;5018225;28;20031;-65
2022/05/26 00:45:37;;;;;;;16.67;7.63;;;;;;;;;;4951924;29;20106;-65
2022/05/26 00:48:09;;;;;;;17.35;7.50;;;;;;;;;;4951966;29;20081;-63
2022/05/26 00:50:40;;;;;;;19.10;7.25;;;;;;;;;;4951755;29;20471;-65
2022/05/26 00:53:18;;;;;;;13.90;7.25;;;;;;;;;;4951743;29;20499;-65
2022/05/26 00:55:44;;;;;;;;;;;;;;;;;;4952457;29;20037;-65
2022/05/26 00:58:14;;;;;;;14.57;7.28;;;;;;;;;;4951557;29;19992;-65
2022/05/26 01:00:41;;;;;;;15.70;7.45;;;;;;;;;;4952043;29;20111;-65
2022/05/26 01:03:22;;;;;;;15.57;7.78;;;;;;;;;;4951682;29;20033;-65
2022/05/26 01:05:51;;;;;;;14.40;7.75;;;;;;;;;;4951645;29;20034;-65
2022/05/26 01:08:22;;;;;;;15.70;7.55;;;;;;;;;;4951441;29;20026;-65
2022/05/26 01:10:48;;;;;;;19.33;7.65;;;;;;;;;;4951710;29;20054;-65
2022/05/26 01:13:16;;;;;;;15.77;7.60;;;;;;;;;;4951667;29;20035;-65
2022/05/26 01:15:45;;;;;;;16.20;7.60;;;;;;;;;;4951709;28;20027;-65
2022/05/26 01:18:26;;;;;;;15.60;7.45;;;;;;;;;;5017447;28;20046;-65
2022/05/26 01:20:58;;;;;;;16.27;7.60;;;;;;;;;;4951553;29;20403;-65
2022/05/26 01:23:43;;;;;;;15.02;7.80;;;;;;;;;;4951392;28;20440;-65
2022/05/26 01:26:12;;;;;;;15.73;7.53;;;;;;;;;;4951299;28;20039;-65
2022/05/26 01:28:41;;;;;;;14.38;7.60;;;;;;;;;;4951146;28;20054;-65
2022/05/26 01:31:25;;;;;;;16.25;7.90;;;;;;;;;;4951409;28;20038;-64
2022/05/26 01:33:54;;;;;;;16.15;7.63;;;;;;;;;;4951289;29;20110;-64
2022/05/26 01:36:20;;;;;;;15.13;7.80;;;;;;;;;;4951312;28;20479;-66
2022/05/26 01:38:46;;;;;;;14.70;7.40;;;;;;;;;;5016661;28;20031;-65
2022/05/26 01:41:12;;;;;;;15.95;8.00;;;;;;;;;;5017232;28;20066;-67
2022/05/26 01:43:38;;;;;;;17.42;8.30;;;;;;;;;;4951037;29;20028;-61
2022/05/26 01:46:10;;;;;;;13.73;7.40;;;;;;;;;;4951105;29;20035;-65
2022/05/26 01:48:55;;;;;;;16.75;8.18;;;;;;;;;;4950992;29;20098;-65
2022/05/26 01:51:21;;;;;;;14.85;8.00;;;;;;;;;;5017290;28;20031;-65
2022/05/26 01:53:47;;;;;;;15.95;7.85;;;;;;;;;;5017267;28;20372;-65
2022/05/26 01:56:25;;;;;;;17.13;8.07;;;;;;;;;;4951181;29;20067;-65
2022/05/26 01:58:59;;;;;;;15.90;8.60;;;;;;;;;;5016875;28;20031;-67
2022/05/26 02:01:28;;;;;;;17.13;8.30;;;;;;;;;;5017070;28;20024;-65
2022/05/26 02:03:54;;;;;;;;;;;;;;;;;;4951438;29;20058;-65
2022/05/26 02:06:23;;;;;;;16.60;8.35;;;;;;;;;;4951503;28;19906;-65
2022/05/26 02:08:49;;;;;;;16.10;9.30;;;;;;;;;;4950854;28;20028;-65
2022/05/26 02:11:17;;;;;;;16.67;8.75;;;;;;;;;;5017413;28;20088;-65
2022/05/26 02:13:52;;;;;;;17.20;8.68;;;;;;;;;;4951146;29;20480;-65
2022/05/26 02:16:38;;;;;;;16.20;8.80;;;;;;;;;;4951101;29;20149;-65
2022/05/26 02:19:09;;;;;;;16.10;8.57;;;;;;;;;;4950845;28;20098;-65
2022/05/26 02:21:40;;;;;;;18.35;9.00;;;;;;;;;;4951093;29;20031;-65
2022/05/26 02:24:08;;;;;;;21.05;9.93;;;;;;;;;;5016785;28;20042;-62
2022/05/26 02:26:35;;;;;;;17.17;9.15;;;;;;;;;;4950967;29;20024;-65
2022/05/26 02:31:48;;;;;;;17.63;10.07;;;;;;;;;;4951091;29;20081;-66
2022/05/26 02:34:14;;;;;;;16.48;9.32;;;;;;;;;;4951167;29;20031;-65
2022/05/26 02:36:42;;;;;;;18.90;9.73;;;;;;;;;;5017383;28;20032;-66
2022/05/26 02:39:08;;;;;;;16.83;9.52;;;;;;;;;;4950949;29;20032;-65
2022/05/26 02:41:34;;;;;;;15.52;9.30;;;;;;;;;;5017486;28;20191;-65
2022/05/26 02:44:01;;;;;;;17.00;9.02;;;;;;;;;;4951136;29;20039;-66
2022/05/26 02:46:33;;;;;;;16.42;9.52;;;;;;;;;;4950815;29;20031;-63
2022/05/26 02:49:14;;;;;;;17.80;9.13;;;;;;;;;;5016972;28;20031;-65
2022/05/26 02:51:43;;;;;;;17.20;9.07;;;;;;;;;;5020463;28;20027;-65
2022/05/26 02:54:28;;;;;;;18.08;9.23;;;;;;;;;;5020497;28;20027;-66
2022/05/26 02:56:53;;;;;;;16.63;9.68;;;;;;;;;;5020344;28;20111;-65
2022/05/26 02:59:22;;;;;;;18.52;9.52;;;;;;;;;;5020183;28;20408;-66
2022/05/26 03:01:48;;;;;;;17.38;9.00;;;;;;;;;;5020237;28;20054;-66
2022/05/26 03:04:14;;;;;;;15.10;9.02;;;;;;;;;;5020056;28;20039;-65
2022/05/26 03:06:45;;;;;;;17.45;8.90;;;;;;;;;;4953645;29;20033;-66
2022/05/26 03:09:11;;;;;;;16.20;8.93;;;;;;;;;;4953957;28;20032;-66
2022/05/26 03:11:48;;;;;;;16.13;9.32;;;;;;;;;;5020101;28;20023;-66
2022/05/26 03:14:15;;;;;;;17.98;10.50;;;;;;;;;;5019884;28;20490;-66
2022/05/26 03:16:41;;;;;;;16.40;9.63;;;;;;;;;;4953525;29;20073;-65
2022/05/26 03:19:08;;;;;;;18.05;9.38;;;;;;;;;;4953213;29;20028;-65
2022/05/26 03:21:33;;;;;;;17.13;9.40;;;;;;;;;;4953261;29;20054;-65
2022/05/26 03:24:00;;;;;;;16.67;9.52;;;;;;;;;;5019492;28;20066;-66
2022/05/26 03:26:26;;;;;;;17.88;9.75;;;;;;;;;;5019732;28;20023;-65
2022/05/26 03:28:52;;;;;;;17.45;9.88;;;;;;;;;;5018873;28;20032;-65
2022/05/26 03:31:18;;;;;;;17.33;9.68;;;;;;;;;;4953430;29;20027;-65
2022/05/26 03:41:57;;;;;;;18.25;11.20;;;;;;;;;;4953129;29;20033;-65
2022/05/26 03:44:25;;;;;;;17.17;10.48;;;;;;;;;;5019166;28;20085;-65
2022/05/26 03:46:51;;;;;;;22.50;10.75;;;;;;;;;;4952738;28;20399;-66
2022/05/26 03:49:17;;;;;;;19.20;10.38;;;;;;;;;;4952544;29;20023;-65
2022/05/26 03:51:43;;;;;;;19.58;10.65;;;;;;;;;;4952948;29;20027;-65
2022/05/26 03:54:09;;;;;;;17.58;9.60;;;;;;;;;;4952709;29;20367;-65
2022/05/26 03:56:35;;;;;;;17.15;10.90;;;;;;;;;;4952791;28;20063;-65
2022/05/26 03:59:01;;;;;;;17.92;10.15;;;;;;;;;;5018882;28;20019;-65
2022/05/26 04:01:28;;;;;;;20.15;11.32;;;;;;;;;;5018246;28;20430;-65
2022/05/26 04:03:55;;;;;;;19.55;10.38;;;;;;;;;;4952539;29;20031;-66
2022/05/26 04:06:21;;;;;;;18.73;10.48;;;;;;;;;;4952399;29;20426;-66
2022/05/26 04:08:47;;;;;;;18.35;10.52;;;;;;;;;;4952295;29;20023;-65
2022/05/26 04:11:13;;;;;;;18.33;10.30;;;;;;;;;;5018303;28;20034;-65
2022/05/26 04:13:39;;;;;;;18.35;11.60;;;;;;;;;;5018609;28;20081;-65
2022/05/26 04:16:06;;;;;;;19.85;10.98;;;;;;;;;;5018360;28;20454;-65
2022/05/26 04:18:32;;;;;;;19.80;10.80;;;;;;;;;;4952272;29;20451;-66
2022/05/26 04:21:06;;;;;;;20.17;10.48;;;;;;;;;;4952458;29;20111;-65
2022/05/26 04:23:32;;;;;;;18.60;11.13;;;;;;;;;;4952196;29;20047;-66
2022/05/26 04:25:58;;;;;;;20.92;11.48;;;;;;;;;;4952239;29;20061;-65
2022/05/26 04:28:23;;;;;;;19.15;12.00;;;;;;;;;;4951974;28;20055;-66
2022/05/26 04:30:49;;;;;;;20.42;11.55;;;;;;;;;;4952354;28;20031;-65
2022/05/26 04:33:15;;;;;;;20.02;11.25;;;;;;;;;;4952408;29;20030;-65
2022/05/26 04:35:41;;;;;;;21.63;11.45;;;;;;;;;;4952207;29;20118;-65
2022/05/26 04:38:07;;;;;;;20.23;11.57;;;;;;;;;;5017799;28;20023;-66
2022/05/26 04:40:33;;;;;;;22.08;11.02;;;;;;;;;;4952056;29;20383;-66
2022/05/26 04:42:59;;;;;;;24.48;11.85;;;;;;;;;;4952188;29;20038;-66
2022/05/26 04:45:25;;;;;;;21.48;12.02;;;;;;;;;;5018039;28;20455;-66
2022/05/26 04:47:52;;;;;;;21.27;12.52;;;;;;;;;;5017709;28;20134;-65
2022/05/26 04:50:18;;;;;;;20.65;12.02;;;;;;;;;;4951979;29;20495;-65
2022/05/26 04:52:44;;;;;;;20.70;11.10;;;;;;;;;;4952080;29;20032;-66
2022/05/26 04:55:11;;;;;;;22.17;13.05;;;;;;;;;;5018256;28;20434;-65
2022/05/26 04:57:37;;;;;;;20.55;12.23;;;;;;;;;;5017742;28;20055;-65
2022/05/26 05:00:05;;;;;;;22.30;12.35;;;;;;;;;;4951681;29;20396;-66
2022/05/26 05:02:31;;;;;;;21.60;12.45;;;;;;;;;;4951405;28;20035;-66
2022/05/26 05:04:57;;;;;;;24.42;13.10;;;;;;;;;;4952032;29;20034;-65
2022/05/26 05:07:23;;;;;;;24.00;12.70;;;;;;;;;;4951882;29;20023;-66
2022/05/26 05:09:49;;;;;;;22.60;12.10;;;;;;;;;;4951704;29;20020;-66
2022/05/26 05:12:17;;;;;;;23.80;13.13;;;;;;;;;;4950710;29;20073;-65
2022/05/26 05:14:45;;;;;;;21.95;13.07;;;;;;;;;;5017497;28;20529;-66
2022/05/26 05:17:11;;;;;;;23.65;13.52;;;;;;;;;;4951562;29;20035;-65
2022/05/26 05:19:37;;;;;;;22.98;13.32;;;;;;;;;;5017673;28;20581;-65
2022/05/26 05:22:10;;;;;;;25.10;13.45;;;;;;;;;;4951586;28;20498;-66
2022/05/26 05:24:42;;;;;;;21.15;12.88;;;;;;;;;;4950953;29;20063;-66
2022/05/26 05:27:17;;;;;;;22.65;13.23;;;;;;;;;;4951332;29;20058;-62
2022/05/26 05:29:45;;;;;;;24.50;12.93;;;;;;;;;;4951320;29;20027;-65
2022/05/26 05:32:31;;;;;;;25.92;13.80;;;;;;;;;;5017652;28;20479;-65
2022/05/26 05:35:02;;;;;;;25.48;12.98;;;;;;;;;;4951628;28;20031;-66
2022/05/26 05:37:30;;;;;;;25.85;14.48;;;;;;;;;;4951152;29;20518;-66
2022/05/26 05:39:56;;;;;;;24.63;14.97;;;;;;;;;;5017307;28;20557;-65
2022/05/26 05:42:22;;;;;;;27.73;13.85;;;;;;;;;;4951240;28;20303;-66
2022/05/26 05:44:48;;;;;;;26.15;15.00;;;;;;;;;;5016866;28;20084;-66
2022/05/26 05:47:13;;;;;;;22.33;13.73;;;;;;;;;;4951005;29;20027;-66
2022/05/26 05:49:39;;;;;;;24.40;13.82;;;;;;;;;;4951350;28;20027;-66
2022/05/26 05:52:13;;;;;;;25.05;14.25;;;;;;;;;;4951155;29;20024;-65
2022/05/26 05:54:39;;;;;;;24.88;14.02;;;;;;;;;;4950888;29;20031;-66
2022/05/26 05:57:06;;;;;;;24.65;15.20;;;;;;;;;;5017298;28;20039;-65
2022/05/26 05:59:32;;;;;;;24.50;13.95;;;;;;;;;;5016840;28;20028;-66
2022/05/26 06:01:58;;;;;;;25.33;14.75;;;;;;;;;;4951483;28;20038;-66
2022/05/26 06:04:24;;;;;;;24.30;14.27;;;;;;;;;;4951156;29;20031;-66
2022/05/26 06:06:51;;;;;;;24.15;15.57;;;;;;;;;;4951098;29;20027;-66
2022/05/26 06:09:17;;;;;;;23.88;15.68;;;;;;;;;;5017396;28;20020;-66
2022/05/26 06:11:44;;;;;;;23.98;13.77;;;;;;;;;;5017451;28;20027;-66
2022/05/26 06:14:10;;;;;;;27.02;14.30;;;;;;;;;;4951286;29;20065;-68
2022/05/26 06:16:36;;;;;;;25.70;14.55;;;;;;;;;;5017752;28;20023;-66
2022/05/26 06:19:03;;;;;;;27.75;15.32;;;;;;;;;;5017344;28;20232;-67
2022/05/26 06:21:29;;;;;;;24.98;14.93;;;;;;;;;;4951290;28;20581;-67
2022/05/26 06:23:56;;;;;;;26.30;15.50;;;;;;;;;;5022511;23;20506;-63
2022/05/26 06:26:23;;;;;;;25.37;14.10;;;;;;;;;;4952605;28;20542;-63
2022/05/26 06:31:34;;;;;;;27.35;16.40;;;;;;;;;;4952563;29;20053;-63
2022/05/26 06:39:29;;;;;;;24.27;14.30;;;;;;;;;;4933305;29;20031;-63
2022/05/26 06:42:07;;;;;;;24.70;14.85;;;;;;;;;;4933228;29;20088;-62
2022/05/26 06:44:34;;;;;;;27.95;14.90;;;;;;;;;;4932728;29;20038;-63
2022/05/26 06:47:01;;;;;;;25.27;13.77;;;;;;;;;;4914095;28;20412;-63
2022/05/26 06:49:27;;;;;;;30.48;15.50;;;;;;;;;;4914162;28;20029;-63
2022/05/26 06:51:53;;;;;;;22.48;13.30;;;;;;;;;;4914210;28;20539;-63
2022/05/26 06:54:19;;;;;;;24.95;14.00;;;;;;;;;;4897220;28;20035;-62
2022/05/26 06:56:45;;;;;;;26.88;14.32;;;;;;;;;;4913981;28;20040;-63
2022/05/26 06:59:11;;;;;;;27.27;14.48;;;;;;;;;;4914015;28;20518;-63
2022/05/26 07:01:37;;;;;;;25.98;14.23;;;;;;;;;;4914888;29;20032;-62
2022/05/26 07:04:03;;;;;;;23.02;13.63;;;;;;;;;;4933047;29;20020;-63
2022/05/26 07:06:29;;;;;;;23.85;14.02;;;;;;;;;;4932942;29;20051;-63
2022/05/26 07:08:55;;;;;;;25.48;13.65;;;;;;;;;;4932823;29;20039;-62
2022/05/26 07:11:21;;;;;;;23.40;13.63;;;;;;;;;;4915732;28;20373;-63
2022/05/26 07:13:47;;;;;;;22.50;14.15;;;;;;;;;;4933026;28;20410;-62
2022/05/26 07:16:15;;;;;;;25.13;14.13;;;;;;;;;;4933031;29;20115;-62
2022/05/26 07:18:41;;;;;;;26.48;13.50;;;;;;;;;;4932916;28;20396;-62
2022/05/26 07:21:08;;;;;;;24.08;13.93;;;;;;;;;;4932882;29;20491;-62
2022/05/26 07:23:34;;;;;;;25.65;14.80;;;;;;;;;;4915807;28;20384;-63
2022/05/26 07:26:05;;;;;;;25.33;14.82;;;;;;;;;;4932408;29;20042;-62
2022/05/26 07:28:32;;;;;;;26.80;13.82;;;;;;;;;;4915374;28;20060;-63
2022/05/26 07:30:58;;;;;;;24.13;13.93;;;;;;;;;;4932653;29;20027;-63
2022/05/26 07:33:24;;;;;;;21.52;12.82;;;;;;;;;;4932563;29;20108;-63
2022/05/26 07:35:50;;;;;;;26.55;14.32;;;;;;;;;;4931877;29;20031;-62
2022/05/26 07:41:19;;;;;;;24.67;12.60;;;;;;;;;;4932381;29;20038;-62
2022/05/26 07:43:47;;;;;;;23.75;13.35;;;;;;;;;;4932159;29;20054;-60
2022/05/26 07:46:13;;;;;;;21.90;12.82;;;;;;;;;;4932677;29;20435;-62
2022/05/26 07:48:39;;;;;;;22.83;13.27;;;;;;;;;;4915132;29;20028;-61
2022/05/26 07:51:05;;;;;;;26.42;14.65;;;;;;;;;;4932213;29;20039;-64
2022/05/26 07:53:31;;;;;;;22.58;12.48;;;;;;;;;;4932249;29;20111;-62
2022/05/26 07:55:57;;;;;;;22.55;13.00;;;;;;;;;;4932166;29;20028;-62
2022/05/26 07:58:23;;;;;;;24.17;12.35;;;;;;;;;;4931865;29;20023;-63
2022/05/26 08:00:52;;;;;;;22.13;12.27;;;;;;;;;;4932330;29;20059;-62
2022/05/26 08:03:18;;;;;;;19.67;11.63;;;;;;;;;;4931875;29;20028;-62
2022/05/26 08:05:44;;;;;;;23.13;12.00;;;;;;;;;;4931917;29;20166;-63
2022/05/26 08:08:10;;;;;;;23.83;12.30;;;;;;;;;;4931793;29;20024;-63
2022/05/26 08:10:37;;;;;;;25.27;11.90;;;;;;;;;;4931987;28;20450;-62
2022/05/26 08:13:03;;;;;;;19.50;11.82;;;;;;;;;;4932107;29;20099;-63
2022/05/26 08:15:31;;;;;;;21.13;10.80;;;;;;;;;;4931902;28;20598;-63
2022/05/26 08:17:57;;;;;;;22.95;11.63;;;;;;;;;;4931677;29;20106;-63
2022/05/26 08:20:23;;;;;;;21.58;10.95;;;;;;;;;;4931906;29;20654;-61
2022/05/26 08:22:49;;;;;;;26.52;11.25;;;;;;;;;;4931894;28;20628;-62
2022/05/26 08:25:15;;;;;;;23.60;12.15;;;;;;;;;;4931704;29;20608;-61
2022/05/26 08:27:41;;;;;;;21.50;10.27;;;;;;;;;;4931669;28;20024;-57
2022/05/26 08:30:08;;;;;;;21.08;10.50;;;;;;;;;;4931772;29;20031;-55
2022/05/26 08:32:34;;;;;;;18.92;10.45;;;;;;;;;;4914313;29;20028;-56
2022/05/26 08:35:01;;;;;;;23.35;10.50;;;;;;;;;;4931785;29;20024;-52
2022/05/26 08:37:27;;;;;;;19.98;10.98;;;;;;;;;;4931460;29;20106;-53
2022/05/26 08:39:53;;;;;;;25.30;12.43;;;;;;;;;;4931481;29;20470;-53
2022/05/26 08:42:23;;;;;;;21.42;10.38;;;;;;;;;;4931690;29;20107;-57
2022/05/26 08:44:49;;;;;;;24.15;10.43;;;;;;;;;;4931415;29;20036;-55
2022/05/26 08:47:22;;;;;;;17.33;9.80;;;;;;;;;;4930074;29;20055;-56
2022/05/26 08:50:01;;;;;;;18.45;9.55;;;;;;;;;;4931353;29;20028;-56
2022/05/26 08:52:33;;;;;;;17.80;9.85;;;;;;;;;;4931281;29;20023;-55
2022/05/26 08:55:19;;;;;;;18.10;9.57;;;;;;;;;;4931215;29;20032;-56
2022/05/26 08:57:54;;;;;;;22.13;10.38;;;;;;;;;;4931124;28;20031;-55
2022/05/26 09:00:22;;;;;;;18.25;11.00;;;;;;;;;;4931309;29;20038;-58
2022/05/26 09:02:53;;;;;;;21.92;10.20;;;;;;;;;;4931120;29;20058;-52
2022/05/26 09:05:20;;;;;;;21.30;9.82;;;;;;;;;;4930934;29;20404;-55
2022/05/26 09:13:33;;;;;;;20.13;9.30;;;;;;;;;;4931138;29;20043;-56
2022/05/26 09:16:00;;;;;;;20.83;9.30;;;;;;;;;;4930450;29;20031;-56
2022/05/26 09:18:26;;;;;;;18.38;8.85;;;;;;;;;;4930606;29;20484;-56
2022/05/26 09:20:52;;;;;;;15.85;8.55;;;;;;;;;;4931075;29;20221;-55
2022/05/26 09:23:18;;;;;;;18.67;9.20;;;;;;;;;;4913659;29;20428;-54
2022/05/26 09:25:49;;;;;;;20.80;9.48;;;;;;;;;;4930789;29;20078;-56
2022/05/26 09:28:32;;;;;;;19.08;8.68;;;;;;;;;;4930596;29;20020;-56
2022/05/26 09:31:18;;;;;;;19.60;9.00;;;;;;;;;;4913669;29;20031;-56
2022/05/26 09:33:44;;;;;;;18.33;10.43;;;;;;;;;;4931133;29;20024;-58
2022/05/26 09:36:28;;;;;;;17.35;8.90;;;;;;;;;;4930880;29;20035;-57
2022/05/26 09:38:54;;;;;;;17.20;8.75;;;;;;;;;;4931981;29;20024;-54
2022/05/26 09:41:20;;;;;;;20.27;9.32;;;;;;;;;;4931993;29;20082;-58
2022/05/26 09:43:48;;;;;;;19.65;9.85;;;;;;;;;;4931421;29;20028;-57
2022/05/26 09:46:16;;;;;;;17.25;9.98;;;;;;;;;;4913977;29;20031;-58
2022/05/26 09:48:44;;;;;;;18.95;10.45;;;;;;;;;;4931834;29;20019;-57
2022/05/26 09:51:34;;;;;;;19.63;9.80;;;;;;;;;;4931460;28;20032;-58
2022/05/26 09:54:00;;;;;;;23.48;9.85;;;;;;;;;;4908262;28;20106;-57
2022/05/26 09:56:28;;;;;;;22.15;11.18;;;;;;;;;;4931213;29;20028;-57
2022/05/26 09:58:55;;;;;;;18.65;10.50;;;;;;;;;;4909798;28;20526;-53
2022/05/26 10:01:24;;;;;;;20.92;10.98;;;;;;;;;;4918247;28;20040;-56
2022/05/26 10:03:54;;;;;;;19.95;10.05;;;;;;;;;;4915842;29;20024;-55
2022/05/26 10:06:29;;;;;;;23.13;11.52;;;;;;;;;;4915288;28;20029;-57
2022/05/26 10:08:56;;;;;;;25.48;10.73;;;;;;;;;;4916305;28;20043;-55
2022/05/26 10:11:33;;;;;;;21.10;10.18;;;;;;;;;;4900004;28;20062;-54
2022/05/26 10:14:24;;;;;;;17.90;10.13;;;;;;;;;;4916389;28;20070;-56
2022/05/26 10:16:50;;;;;;;16.60;9.45;;;;;;;;;;4916378;28;20032;-54
2022/05/26 10:19:19;;;;;;;20.27;10.70;;;;;;;;;;4916481;29;20024;-57
2022/05/26 10:22:09;;;;;;;23.10;10.63;;;;;;;;;;4916072;28;20028;-56
2022/05/26 10:24:38;;;;;;;19.25;10.07;;;;;;;;;;4898702;28;20481;-56
2022/05/26 10:27:28;;;;;;;19.27;11.82;;;;;;;;;;4916362;28;20029;-61
2022/05/26 10:29:54;;;;;;;19.48;10.98;;;;;;;;;;4932209;29;20028;-53
2022/05/26 10:32:33;;;;;;;19.38;11.80;;;;;;;;;;4933313;29;20028;-53
2022/05/26 10:35:08;;;;;;;18.90;11.25;;;;;;;;;;4933522;29;20035;-52
2022/05/26 10:37:40;;;;;;;22.73;11.27;;;;;;;;;;4933070;29;20031;-60
2022/05/26 10:40:16;;;;;;;17.05;10.65;;;;;;;;;;4916425;29;20035;-58
2022/05/26 10:42:46;;;;;;;19.27;10.70;;;;;;;;;;4932954;29;20032;-55
2022/05/26 10:45:15;;;;;;;17.52;9.93;;;;;;;;;;4933193;29;20127;-55
2022/05/26 10:47:41;;;;;;;17.50;10.30;;;;;;;;;;4932880;29;20055;-56
2022/05/26 10:50:07;;;;;;;19.33;9.75;;;;;;;;;;4933401;29;20082;-57
2022/05/26 10:52:43;;;;;;;20.42;10.55;;;;;;;;;;4933364;29;20102;-59
2022/05/26 10:55:15;;;;;;;17.58;10.48;;;;;;;;;;4916237;28;20055;-52
2022/05/26 10:57:53;;;;;;;21.55;10.25;;;;;;;;;;4932934;29;20533;-52
2022/05/26 11:00:22;;;;;;;18.20;10.15;;;;;;;;;;4932901;29;20024;-57
2022/05/26 11:03:09;;;;;;;19.58;10.77;;;;;;;;;;4933080;29;20032;-56
2022/05/26 11:05:43;;;;;;;20.35;10.63;;;;;;;;;;4932665;29;20032;-54
2022/05/26 11:08:24;;;;;;;18.17;11.07;;;;;;;;;;4932847;29;20396;-54
2022/05/26 11:10:59;;;;;;;21.23;11.45;;;;;;;;;;4931861;29;20035;-53
2022/05/26 11:13:34;;;;;;;19.15;10.13;;;;;;;;;;4932950;29;20084;-58
2022/05/26 11:19:00;;;;;;;17.80;10.50;;;;;;;;;;4933667;29;20093;-57
2022/05/26 11:21:26;;;;;;;21.23;10.23;;;;;;;;;;4933127;29;20052;-56
2022/05/26 11:23:52;;;;;;;17.75;9.98;;;;;;;;;;4932655;29;20031;-57
2022/05/26 11:26:24;;;;;;;16.27;9.40;;;;;;;;;;4932533;29;20024;-53
2022/05/26 11:28:53;;;;;;;18.77;9.75;;;;;;;;;;4932497;29;20051;-56
2022/05/26 11:37:25;;;;;;;17.10;9.25;;;;;;;;;;4932997;29;20090;-57
2022/05/26 11:39:55;;;;;;;18.27;9.82;;;;;;;;;;4933476;29;20023;-56
2022/05/26 11:42:54;;;;;;;20.25;9.80;;;;;;;;;;4933884;29;20476;-53
2022/05/26 11:45:26;;;;;;;18.95;9.07;;;;;;;;;;4953467;28;20474;-55
2022/05/26 11:48:05;;;;;;;19.52;9.77;;;;;;;;;;4932338;29;20483;-59
2022/05/26 11:50:43;;;;;;;17.00;10.80;;;;;;;;;;4932481;29;20028;-59
2022/05/26 11:53:14;;;;;;;18.08;10.02;;;;;;;;;;4932331;29;20118;-58
2022/05/26 11:55:50;;;;;;;16.92;10.23;;;16.50;98.50;;;;;;4932198;29;20032;-56
2022/05/26 11:58:36;;;;;;;17.35;10.35;;;21.20;99.90;;;;;;4606127;28;10000387;-58
2022/05/26 12:01:14;;;;;;;21.05;11.10;;;20.20;99.90;;;;;;5004320;28;20069;-53
2022/05/26 12:03:49;;;;;;;18.90;11.67;;;;;;;;;;4912410;29;20027;-58
2022/05/26 12:06:16;;;;;;;20.23;11.98;;;;;;;;;;4928922;29;20036;-57
2022/05/26 12:08:54;;;;;;;21.02;11.65;;;19.30;99.90;;;;;;4929190;29;20419;-59
2022/05/26 12:11:58;;;;;;;17.70;12.00;;;20.60;99.90;;;;;;4930317;28;20083;-60
2022/05/26 12:14:32;;;;;;;20.88;12.13;;;20.80;99.90;;;;;;4922612;29;20025;-63
2022/05/26 12:17:30;;;;;;;22.45;12.48;;;20.10;99.90;;;;;;4912595;29;20031;-56
2022/05/26 12:20:03;;;;;;;18.20;10.98;;;20.50;99.90;;;;;;4911440;28;20051;-57
2022/05/26 12:22:37;;;;;;;20.50;11.32;;;;;;;;;;4919119;29;20024;-60
2022/05/26 12:25:30;;;;;;;19.73;11.60;;;21.80;99.90;;;;;;4953082;23;20095;-61
2022/05/26 12:28:10;;;;;;;19.33;11.80;;;23.40;99.90;;;;;;4946505;29;20051;-63
2022/05/26 12:30:44;;;;;;;22.45;12.45;;;23.30;99.90;;;;;;4948064;29;20055;-59
2022/05/26 12:33:19;;;;;;;17.42;11.52;;;21.80;99.90;;;;;;4947074;29;20031;-62
2022/05/26 12:36:09;;;;;;;20.10;11.57;;;20.40;99.90;;;;;;4924452;29;20024;-61
2022/05/26 12:38:44;;;;;;;21.48;12.75;;;19.90;99.90;;;;;;4901820;28;20031;-63
2022/05/26 12:41:47;;;;;;;21.80;12.60;;;19.70;99.90;;;;;;4904956;28;20043;-62
2022/05/26 12:44:50;;;;;;;19.52;11.38;;;20.10;99.90;;;;;;4921879;29;20484;-63
2022/05/26 12:47:37;;;;;;;19.65;12.02;;;21.80;99.90;;;;;;4924008;29;20106;-64
2022/05/26 12:50:18;;;;;;;18.85;11.68;;;23.40;99.90;;;;;;4923867;28;20030;-61
2022/05/26 12:52:55;;;;;;;18.08;11.73;;;22.50;99.90;;;;;;4921419;28;20496;-61
2022/05/26 12:55:38;;;;;;;17.77;11.60;;;21.70;99.90;;;;;;4924466;29;20454;-65
2022/05/26 12:58:23;;;;;;;19.70;10.75;;;20.90;99.90;;;;;;4907246;29;20440;-59
2022/05/26 13:00:55;;;;;;;19.77;10.48;;;20.50;99.90;;;;;;4585121;28;9999806;-62
2022/05/26 13:03:26;;;;;;;16.23;9.73;;;20.60;99.90;;;;;;4921058;29;20403;-61
2022/05/26 13:06:07;;;;;;;17.23;9.48;;;21.10;99.90;;;;;;4921823;28;20056;-63
2022/05/26 13:08:51;;;;;;;17.08;10.63;;;22.00;99.90;;;;;;4903320;29;20052;-63
2022/05/26 13:11:25;;;;;;;18.92;10.85;;;23.60;99.10;;;;;;4920722;29;20107;-61
2022/05/26 13:13:51;;;;;;;16.88;11.27;;;;;;;;;;4904101;28;20024;-62
2022/05/26 13:16:22;;;;;;;20.23;12.68;;;;;;;;;;4921232;29;20115;-63
2022/05/26 13:18:48;;;;;;;18.85;11.52;;;;;;;;;;4920259;29;20426;-62
2022/05/26 13:21:23;;;;;;;17.60;11.75;;;;;;;;;;4918270;29;20030;-63
2022/05/26 13:23:50;;;;;;;20.38;12.63;;;;;;;;;;4919028;29;20034;-62
2022/05/26 13:26:17;;;;;;;19.30;12.57;;;;;;;;;;4918852;28;20028;-62
2022/05/26 13:28:46;;;;;;;22.50;12.75;;;;;;;;;;4920045;29;20027;-62
2022/05/26 13:33:57;;;;;;;19.95;11.60;;;;;;;;;;4919801;28;20408;-62
2022/05/26 13:36:26;;;;;;;20.15;12.50;;;;;;;;;;4905016;29;20435;-60
2022/05/26 13:38:52;;;;;;;18.30;12.18;;;;;;;;;;4921441;29;20035;-61
2022/05/26 13:41:21;;;;;;;18.92;12.20;;;;;;;;;;4915505;28;20028;-62
2022/05/26 13:43:47;;;;;;;22.85;13.10;;;;;;;;;;4912945;28;20406;-60
2022/05/26 13:46:22;;;;;;;21.52;12.88;;;;;;;;;;4912492;28;20357;-62
2022/05/26 13:48:53;;;;;;;18.85;12.05;;;;;;;;;;4912515;28;20519;-61
2022/05/26 13:51:23;;;;;;;21.27;12.15;;;;;;;;;;4895738;28;20115;-61
2022/05/26 13:54:13;;;;;;;20.27;12.43;;;;;;;;;;4895871;28;20048;-62
2022/05/26 13:56:43;;;;;;;20.73;11.82;;;;;;;;;;4912837;29;20392;-59
2022/05/26 13:59:11;;;;;;;18.07;12.30;;;;;;;;;;4585142;28;10000773;-63
2022/05/26 14:01:49;;;;;;;20.30;12.00;;;;;;;;;;4948177;29;20024;-62
2022/05/26 14:04:22;;;;;;;17.60;11.73;;;;;;;;;;4949187;28;20112;-62
2022/05/26 14:06:48;;;;;;;17.58;11.45;;;;;;;;;;4948232;28;20275;-61
2022/05/26 14:09:32;;;;;;;18.58;12.75;;;;;;;;;;4947803;29;20106;-63
2022/05/26 14:12:03;;;;;;;18.20;12.38;;;;;;;;;;4948222;29;20102;-60
2022/05/26 14:14:38;;;;;;;18.52;11.68;;;24.70;97.60;;;;;;4948048;28;20110;-61
2022/05/26 14:17:05;;;;;;;18.80;11.90;;;20.40;99.90;;;;;;4947979;29;20037;-61
2022/05/26 14:19:33;;;;;;;20.40;12.07;;;21.10;99.90;;;;;;4947470;28;20122;-63
2022/05/26 14:22:00;;;;;;;19.75;12.07;;;21.70;99.10;;;;;;4947808;29;20046;-62
2022/05/26 14:24:41;;;;;;;17.13;11.98;;;21.40;98.90;;;;;;4947347;28;20031;-62
2022/05/26 14:27:18;;;;;;;17.08;11.95;;;21.40;99.20;;;;;;4930269;29;20452;-62
2022/05/26 14:30:23;;;;;;;19.77;12.90;;;21.20;99.70;;;;;;4947678;29;20027;-62
2022/05/26 14:32:48;;;;;;;21.27;12.88;;;21.00;99.80;;;;;;4949358;29;20465;-58
2022/05/26 14:35:17;;;;;;;20.73;12.98;;;20.60;99.90;;;;;;4948847;28;20138;-59
2022/05/26 14:37:46;;;;;;;19.45;13.07;;;20.10;99.90;;;;;;4950125;28;20791;-60
2022/05/26 14:40:12;;;;;;;17.70;12.82;;;19.90;99.90;;;;;;4950292;29;20039;-64
2022/05/26 14:42:43;;;;;;;20.10;12.55;;;20.00;99.90;;;;;;4950165;28;20373;-64
2022/05/26 14:45:12;;;;;;;18.73;12.13;;;20.30;99.90;;;;;;4951238;28;20033;-59
2022/05/26 14:47:38;;;;;;;22.08;13.40;;;20.40;99.90;;;;;;4935646;29;20024;-60
2022/05/26 14:50:06;;;;;;;19.13;12.18;;;20.30;99.90;;;;;;4953442;29;20105;-59
2022/05/26 14:52:32;;;;;;;18.42;12.55;;;20.20;99.90;;;;;;4595460;28;10000299;-63
2022/05/26 14:57:43;;;;;;;17.38;11.93;;;20.60;99.90;;;;;;4931604;29;20062;-62
2022/05/26 15:00:14;;;;;;;20.13;11.50;;;20.30;99.90;;;;;;4931449;29;20031;-63
2022/05/26 15:02:39;;;;;;;19.40;11.57;;;20.20;99.90;;;;;;4914127;29;20224;-61
2022/05/26 15:05:06;;;;;;;19.67;12.60;;;20.20;99.90;;;;;;4927522;28;20027;-63